MSC Vigo — A8ZV8 — position and weather

sailwx.info

Track history (hours):
 
Tides and Currents Weather Stations Pressure Air Temp Water Temp Dewpoint Dewpoint Depression Visibility Wind Speed Wind Dir Waves Ship Positions

MSC Vigo

Last reported at 2015-Jul-26 09:00 UTC. Time now 2015-Jul-29 09:29 UTC.
Position S 00°30' W 029°36'.

Length 270 m; draft 12.2 m.

Type: Ship (hazmat cat A). MMSI: 636092276.

Wind from 110 at 14 knots

Waves 1.0 meters (3 feet), 3 second period

Barometer 1016.0 mb
Air temperature 25.0 ° C
Visibility: greater than 10.8 NM
Dewpoint 21.3 ° C
Water temperature 29.0 ° C

Date/timePositionNaut miles runAvg speedWind from/ knotsBaromVisibWave heightAir tempDewpointWater temp
2015-Jul-26 09:00S 00°30' W 029°36'38916.2 110 / 141016.010.8 1.025.021.329.0
2015-Jul-25 09:00N 04°54' W 026°00'68815.6 180 / 221014.510.8 2.527.521.928.0
2015-Jul-23 13:00N 15°12' W 020°54'7514.9 330 / 101014.010.8 0.526.520.0
2015-Jul-23 08:00N 16°18' W 020°18'74817.0 340 / 111015.010.8 1.025.020.423.0
2015-Jul-21 12:00N 27°24' W 014°12'2114.1 010 / 111014.0 5.4 1.023.520.6
2015-Jul-21 10:32N 27°42' W 014°00'1818.3
2015-Jul-21 09:33N 27°56' W 013°48'1818.6
2015-Jul-21 08:33N 28°11' W 013°36'2020.1
2015-Jul-21 07:33N 28°27' W 013°22'916.1
2015-Jul-21 07:00N 28°30' W 013°12'1227.7 020 / 181013.0 5.4 2.022.020.628.0
2015-Jul-21 06:33N 28°42' W 013°09'1817.9
2015-Jul-21 05:33N 28°56' W 012°57'1818.0
2015-Jul-21 04:33N 29°11' W 012°45'10818.1
2015-Jul-20 22:34N 30°38' W 011°30'1918.6
2015-Jul-20 21:34N 30°52' W 011°18'2518.5
2015-Jul-20 20:12N 31°13' W 011°00'1218.7
2015-Jul-20 19:33N 31°23' W 010°52'3918.4
2015-Jul-20 17:24N 31°54' W 010°24'1718.2
2015-Jul-20 16:29N 32°07' W 010°12'3618.5
2015-Jul-20 14:33N 32°36' W 009°47'3718.3
2015-Jul-20 12:31N 33°04' W 009°17'11317.3
2015-Jul-20 06:00N 34°24' W 007°42'20016.6 360 / 71016.010.8 0.523.020.826.0
2015-Jul-19 18:00N 36°06' W 004°12'5114.9 300 / 71015.010.8 0.525.721.128.0
2015-Jul-19 14:33N 36°19' W 003°10'10116.8
2015-Jul-19 08:33N 37°02' W 001°17'2218.6
2015-Jul-19 07:21N 37°18' W 000°57'1518.6
2015-Jul-19 06:33N 37°28' W 000°43'1817.7
2015-Jul-19 05:33N 37°41' W 000°29'1817.9
2015-Jul-19 04:33N 37°56' W 000°16'6415.9
2015-Jul-19 00:33N 38°55' E 000°16'50 2.5
2015-Jul-18 04:33N 39°40' E 000°42'2120.5
2015-Jul-18 03:33N 39°54' E 001°02'2020.5
2015-Jul-18 02:34N 40°11' E 001°16'2121.1
2015-Jul-18 01:33N 40°29' E 001°32'2120.8
2015-Jul-18 00:33N 40°46' E 001°47'1918.8
2015-Jul-17 23:33N 41°02' E 001°59'1413.9
2015-Jul-17 22:33N 41°14' E 002°09'4 4.4
2015-Jul-17 21:32N 41°18' E 002°09'0 0.0
2015-Jul-17 20:33N 41°18' E 002°09'0 0.0
2015-Jul-17 19:33N 41°18' E 002°09'0 0.0
2015-Jul-17 18:33N 41°18' E 002°09'0 0.0
2015-Jul-17 17:33N 41°18' E 002°09'0 0.0
2015-Jul-17 16:33N 41°18' E 002°09'0 0.0
2015-Jul-17 15:33N 41°18' E 002°09'0 0.0
2015-Jul-17 14:33N 41°18' E 002°09'0 0.0
2015-Jul-17 13:33N 41°18' E 002°09'0 0.0
2015-Jul-17 12:33N 41°18' E 002°09'0 0.0
2015-Jul-17 11:33N 41°18' E 002°09'0 0.0
2015-Jul-17 10:33N 41°18' E 002°09'0 0.0
2015-Jul-17 09:33N 41°18' E 002°09'0 0.0
2015-Jul-17 08:33N 41°18' E 002°09'0 0.0
2015-Jul-17 07:33N 41°18' E 002°09'0 0.0
2015-Jul-17 06:33N 41°18' E 002°09'0 0.4
2015-Jul-17 05:33N 41°19' E 002°09'4 4.2
2015-Jul-17 04:33N 41°16' E 002°14'6 6.3
2015-Jul-17 03:33N 41°18' E 002°22'1414.2
2015-Jul-17 02:33N 41°25' E 002°38'1817.7
2015-Jul-17 01:33N 41°34' E 002°59'1817.8
2015-Jul-17 00:33N 41°45' E 003°18'1818.3
2015-Jul-16 23:33N 41°58' E 003°34'1918.5
2015-Jul-16 22:33N 42°13' E 003°50'1818.2
2015-Jul-16 21:33N 42°26' E 004°06'1918.4
2015-Jul-16 20:33N 42°40' E 004°23'1818.5
2015-Jul-16 19:33N 42°54' E 004°39'1817.9
2015-Jul-16 18:34N 43°07' E 004°56'1515.2
2015-Jul-16 17:34N 43°22' E 004°58'6 5.7
2015-Jul-16 16:31N 43°25' E 004°50'0 0.0
2015-Jul-16 15:31N 43°25' E 004°50'0 0.0
2015-Jul-16 14:31N 43°25' E 004°50'0 0.0
2015-Jul-16 13:28N 43°25' E 004°50'0 0.0
2015-Jul-16 12:31N 43°25' E 004°50'0 0.0
2015-Jul-16 11:28N 43°25' E 004°50'0 0.0
2015-Jul-16 10:31N 43°25' E 004°50'0 0.0
2015-Jul-16 09:34N 43°25' E 004°50'  
Track history (hours):
 
Tides and Currents Weather Stations Pressure Air Temp Water Temp Dewpoint Dewpoint Depression Visibility Wind Speed Wind Dir Waves Ship Positions

MSC Vigo

Last reported at 2015-Jul-26 09:00 UTC. Time now 2015-Jul-29 09:29 UTC.
Position S 00°30' W 029°36'.

Length 270 m; draft 12.2 m.

Type: Ship (hazmat cat A). MMSI: 636092276.

Wind from 110 at 14 knots

Waves 1.0 meters (3 feet), 3 second period

Barometer 1016.0 mb
Air temperature 25.0 ° C
Visibility: greater than 10.8 NM
Dewpoint 21.3 ° C
Water temperature 29.0 ° C

Date/timePositionNaut miles runAvg speedWind from/ knotsBaromVisibWave heightAir tempDewpointWater temp
2015-Jul-26 09:00S 00°30' W 029°36'38916.2 110 / 141016.010.8 1.025.021.329.0
2015-Jul-25 09:00N 04°54' W 026°00'68815.6 180 / 221014.510.8 2.527.521.928.0
2015-Jul-23 13:00N 15°12' W 020°54'7514.9 330 / 101014.010.8 0.526.520.0
2015-Jul-23 08:00N 16°18' W 020°18'74817.0 340 / 111015.010.8 1.025.020.423.0
2015-Jul-21 12:00N 27°24' W 014°12'2114.1 010 / 111014.0 5.4 1.023.520.6
2015-Jul-21 10:32N 27°42' W 014°00'1818.3
2015-Jul-21 09:33N 27°56' W 013°48'1818.6
2015-Jul-21 08:33N 28°11' W 013°36'2020.1
2015-Jul-21 07:33N 28°27' W 013°22'916.1
2015-Jul-21 07:00N 28°30' W 013°12'1227.7 020 / 181013.0 5.4 2.022.020.628.0
2015-Jul-21 06:33N 28°42' W 013°09'1817.9
2015-Jul-21 05:33N 28°56' W 012°57'1818.0
2015-Jul-21 04:33N 29°11' W 012°45'10818.1
2015-Jul-20 22:34N 30°38' W 011°30'1918.6
2015-Jul-20 21:34N 30°52' W 011°18'2518.5
2015-Jul-20 20:12N 31°13' W 011°00'1218.7
2015-Jul-20 19:33N 31°23' W 010°52'3918.4
2015-Jul-20 17:24N 31°54' W 010°24'1718.2
2015-Jul-20 16:29N 32°07' W 010°12'3618.5
2015-Jul-20 14:33N 32°36' W 009°47'3718.3
2015-Jul-20 12:31N 33°04' W 009°17'11317.3
2015-Jul-20 06:00N 34°24' W 007°42'20016.6 360 / 71016.010.8 0.523.020.826.0
2015-Jul-19 18:00N 36°06' W 004°12'5114.9 300 / 71015.010.8 0.525.721.128.0
2015-Jul-19 14:33N 36°19' W 003°10'10116.8
2015-Jul-19 08:33N 37°02' W 001°17'2218.6
2015-Jul-19 07:21N 37°18' W 000°57'1518.6
2015-Jul-19 06:33N 37°28' W 000°43'1817.7
2015-Jul-19 05:33N 37°41' W 000°29'1817.9
2015-Jul-19 04:33N 37°56' W 000°16'6415.9
2015-Jul-19 00:33N 38°55' E 000°16'50 2.5
2015-Jul-18 04:33N 39°40' E 000°42'2120.5
2015-Jul-18 03:33N 39°54' E 001°02'2020.5
2015-Jul-18 02:34N 40°11' E 001°16'2121.1
2015-Jul-18 01:33N 40°29' E 001°32'2120.8
2015-Jul-18 00:33N 40°46' E 001°47'1918.8
2015-Jul-17 23:33N 41°02' E 001°59'1413.9
2015-Jul-17 22:33N 41°14' E 002°09'4 4.4
2015-Jul-17 21:32N 41°18' E 002°09'0 0.0
2015-Jul-17 20:33N 41°18' E 002°09'0 0.0
2015-Jul-17 19:33N 41°18' E 002°09'0 0.0
2015-Jul-17 18:33N 41°18' E 002°09'0 0.0
2015-Jul-17 17:33N 41°18' E 002°09'0 0.0
2015-Jul-17 16:33N 41°18' E 002°09'0 0.0
2015-Jul-17 15:33N 41°18' E 002°09'0 0.0
2015-Jul-17 14:33N 41°18' E 002°09'0 0.0
2015-Jul-17 13:33N 41°18' E 002°09'0 0.0
2015-Jul-17 12:33N 41°18' E 002°09'0 0.0
2015-Jul-17 11:33N 41°18' E 002°09'0 0.0
2015-Jul-17 10:33N 41°18' E 002°09'0 0.0
2015-Jul-17 09:33N 41°18' E 002°09'0 0.0
2015-Jul-17 08:33N 41°18' E 002°09'0 0.0
2015-Jul-17 07:33N 41°18' E 002°09'0 0.0
2015-Jul-17 06:33N 41°18' E 002°09'0 0.4
2015-Jul-17 05:33N 41°19' E 002°09'4 4.2
2015-Jul-17 04:33N 41°16' E 002°14'6 6.3
2015-Jul-17 03:33N 41°18' E 002°22'1414.2
2015-Jul-17 02:33N 41°25' E 002°38'1817.7
2015-Jul-17 01:33N 41°34' E 002°59'1817.8
2015-Jul-17 00:33N 41°45' E 003°18'1818.3
2015-Jul-16 23:33N 41°58' E 003°34'1918.5
2015-Jul-16 22:33N 42°13' E 003°50'1818.2
2015-Jul-16 21:33N 42°26' E 004°06'1918.4
2015-Jul-16 20:33N 42°40' E 004°23'1818.5
2015-Jul-16 19:33N 42°54' E 004°39'1817.9
2015-Jul-16 18:34N 43°07' E 004°56'1515.2
2015-Jul-16 17:34N 43°22' E 004°58'6 5.7
2015-Jul-16 16:31N 43°25' E 004°50'0 0.0
2015-Jul-16 15:31N 43°25' E 004°50'0 0.0
2015-Jul-16 14:31N 43°25' E 004°50'0 0.0
2015-Jul-16 13:28N 43°25' E 004°50'0 0.0
2015-Jul-16 12:31N 43°25' E 004°50'0 0.0
2015-Jul-16 11:28N 43°25' E 004°50'0 0.0
2015-Jul-16 10:31N 43°25' E 004°50'0 0.0
2015-Jul-16 09:34N 43°25' E 004°50'  

Dump ship's entire track history